createdAt,value
2018-03-06T00:01:50.084Z,11.30
2018-03-06T00:04:19.335Z,11.10
2018-03-06T00:06:47.955Z,11.90
2018-03-06T00:09:16.193Z,10.20
2018-03-06T00:11:44.477Z,10.37
2018-03-06T00:14:14.207Z,9.97
2018-03-06T00:16:42.458Z,11.83
2018-03-06T00:19:11.196Z,11.90
2018-03-06T00:21:40.779Z,12.23
2018-03-06T00:24:09.651Z,11.60
2018-03-06T00:26:39.000Z,11.73
2018-03-06T00:29:07.236Z,10.07
2018-03-06T00:31:35.467Z,12.40
2018-03-06T00:34:04.774Z,11.77
2018-03-06T00:36:34.518Z,11.43
2018-03-06T00:39:03.522Z,13.57
2018-03-06T00:41:34.427Z,12.80
2018-03-06T00:44:03.676Z,12.33
2018-03-06T00:46:31.914Z,12.07
2018-03-06T00:49:01.060Z,13.17
2018-03-06T00:51:30.061Z,12.00
2018-03-06T00:53:58.296Z,12.30
2018-03-06T00:56:29.244Z,13.37
2018-03-06T00:58:58.248Z,11.77
2018-03-06T01:01:26.486Z,12.00
2018-03-06T01:03:56.568Z,11.67
2018-03-06T01:06:24.796Z,12.97
2018-03-06T01:08:53.420Z,12.07
2018-03-06T01:11:23.018Z,11.97
2018-03-06T01:13:51.249Z,12.77
2018-03-06T01:16:20.253Z,12.57
2018-03-06T01:18:49.541Z,12.43
2018-03-06T01:21:17.776Z,13.57
2018-03-06T01:23:47.508Z,13.27
2018-03-06T01:26:15.950Z,14.30
2018-03-06T01:28:44.484Z,14.27
2018-03-06T01:31:12.716Z,13.77
2018-03-06T01:33:41.097Z,14.00
2018-03-06T01:36:10.092Z,14.07
2018-03-06T01:38:38.323Z,14.97
2018-03-06T01:41:07.560Z,13.73
2018-03-06T01:43:36.199Z,13.43
2018-03-06T01:46:04.819Z,12.60
2018-03-06T01:48:34.046Z,14.67
2018-03-06T01:51:03.412Z,14.30
2018-03-06T01:53:32.779Z,13.77
2018-03-06T01:56:04.460Z,14.20
2018-03-06T01:58:36.527Z,14.03
2018-03-06T02:01:05.380Z,14.97
2018-03-06T02:03:34.390Z,14.27
2018-03-06T02:06:03.398Z,13.60
2018-03-06T02:08:32.744Z,14.40
2018-03-06T02:11:02.335Z,12.33
2018-03-06T02:13:31.824Z,13.90
2018-03-06T02:16:00.844Z,13.93
2018-03-06T02:18:29.836Z,13.90
2018-03-06T02:20:58.841Z,14.93
2018-03-06T02:23:28.509Z,13.10
2018-03-06T02:25:56.740Z,14.47
2018-03-06T02:28:24.963Z,15.20
2018-03-06T02:30:53.352Z,14.50
2018-03-06T02:33:21.586Z,14.33
2018-03-06T02:35:49.826Z,14.83
2018-03-06T02:38:19.209Z,14.43
2018-03-06T02:40:47.436Z,14.13
2018-03-06T02:43:17.024Z,15.47
2018-03-06T02:45:45.675Z,16.63
2018-03-06T02:48:13.908Z,16.90
2018-03-06T02:50:42.137Z,16.70
2018-03-06T02:53:10.684Z,18.00
2018-03-06T02:55:39.304Z,18.60
2018-03-06T02:58:07.541Z,19.83
2018-03-06T03:00:36.652Z,19.03
2018-03-06T03:03:04.881Z,16.83
2018-03-06T03:05:33.108Z,16.77
2018-03-06T03:08:03.118Z,16.17
2018-03-06T03:10:32.698Z,21.03
2018-03-06T03:13:00.804Z,22.80
2018-03-06T03:15:29.900Z,18.23
2018-03-06T03:17:58.520Z,15.97
2018-03-06T03:20:28.257Z,18.07
2018-03-06T03:22:57.185Z,18.23
2018-03-06T03:25:25.425Z,17.23
2018-03-06T03:27:53.656Z,17.47
2018-03-06T03:30:22.298Z,18.00
2018-03-06T03:32:51.292Z,20.47
2018-03-06T03:35:20.305Z,19.87
2018-03-06T03:37:48.696Z,25.40
2018-03-06T03:40:18.284Z,20.10
2018-03-06T03:42:47.882Z,23.40
2018-03-06T03:45:17.365Z,20.97
2018-03-06T03:47:45.860Z,19.40
2018-03-06T03:50:14.239Z,23.63
2018-03-06T03:52:42.868Z,21.90
2018-03-06T03:55:11.097Z,20.33
2018-03-06T03:57:43.740Z,64.57
2018-03-06T04:00:12.364Z,52.87
2018-03-06T04:02:47.281Z,29.23
2018-03-06T04:05:15.508Z,22.37
2018-03-06T04:07:44.514Z,19.87
2018-03-06T04:10:13.376Z,20.10
2018-03-06T04:12:41.604Z,20.47
2018-03-06T04:15:09.842Z,23.37
2018-03-06T04:17:39.565Z,22.43
2018-03-06T04:20:07.792Z,22.00
2018-03-06T04:22:36.416Z,19.90
2018-03-06T04:25:06.528Z,21.23
2018-03-06T04:27:34.753Z,20.50
2018-03-06T04:30:03.763Z,22.10
2018-03-06T04:32:36.656Z,21.90
2018-03-06T04:35:04.891Z,19.90
2018-03-06T04:37:33.116Z,22.90
2018-03-06T04:40:02.300Z,20.50
2018-03-06T04:42:30.533Z,23.57
2018-03-06T04:45:00.136Z,22.50
2018-03-06T04:47:28.746Z,24.07
2018-03-06T04:49:57.740Z,22.40
2018-03-06T04:52:25.968Z,20.57
2018-03-06T04:54:55.060Z,21.20
2018-03-06T04:57:23.692Z,20.20
2018-03-06T04:59:53.279Z,19.80
2018-03-06T05:02:22.048Z,22.63
2018-03-06T05:04:56.724Z,19.50
2018-03-06T05:07:26.533Z,20.67
2018-03-06T05:09:55.523Z,22.77
2018-03-06T05:12:23.752Z,26.20
2018-03-06T05:14:52.356Z,22.10
2018-03-06T05:17:21.936Z,22.67
2018-03-06T05:19:50.044Z,24.63
2018-03-06T05:22:19.188Z,27.77
2018-03-06T05:24:47.415Z,24.93
2018-03-06T05:27:16.419Z,30.27
2018-03-06T05:29:45.561Z,32.57
2018-03-06T05:32:14.556Z,32.10
2018-03-06T05:34:43.553Z,29.80
2018-03-06T05:39:45.832Z,30.27
2018-03-06T05:42:14.833Z,34.70
2018-03-06T05:44:43.828Z,28.47
2018-03-06T05:47:12.812Z,29.80
2018-03-06T05:49:42.180Z,42.63
2018-03-06T05:52:10.411Z,42.23
2018-03-06T05:54:41.070Z,27.30
2018-03-06T05:57:09.692Z,24.17
2018-03-06T05:59:37.929Z,29.23
2018-03-06T06:02:06.495Z,30.60
2018-03-06T06:04:34.732Z,25.07
2018-03-06T06:07:04.452Z,24.73
2018-03-06T06:12:06.548Z,27.70
2018-03-06T06:14:35.552Z,23.67
2018-03-06T06:17:04.549Z,33.93
2018-03-06T06:19:34.553Z,28.40
2018-03-06T06:22:03.428Z,28.33
2018-03-06T06:24:31.669Z,25.23
2018-03-06T06:27:00.032Z,21.83
2018-03-06T06:29:28.263Z,27.83
2018-03-06T06:31:57.262Z,30.37
2018-03-06T06:34:26.028Z,30.30
2018-03-06T06:36:54.260Z,31.50
2018-03-06T06:39:22.498Z,38.47
2018-03-06T06:41:52.391Z,32.33
2018-03-06T06:44:20.621Z,29.67
2018-03-06T06:46:49.999Z,28.10
2018-03-06T06:49:18.900Z,30.50
2018-03-06T06:51:47.133Z,27.37
2018-03-06T06:54:16.876Z,35.50
2018-03-06T06:56:45.249Z,35.37
2018-03-06T06:59:13.500Z,36.07
2018-03-06T07:01:42.506Z,32.90
2018-03-06T07:04:12.372Z,27.67
2018-03-06T07:06:40.603Z,28.53
2018-03-06T07:09:13.536Z,30.37
2018-03-06T07:11:41.774Z,32.20
2018-03-06T07:14:11.152Z,28.97
2018-03-06T07:16:39.716Z,30.57
2018-03-06T07:19:09.299Z,30.00
2018-03-06T07:21:39.535Z,25.20
2018-03-06T07:24:08.204Z,26.10
2018-03-06T07:26:37.571Z,29.00
2018-03-06T07:29:05.796Z,27.77
2018-03-06T07:31:34.168Z,29.73
2018-03-06T07:34:02.409Z,33.87
2018-03-06T07:36:30.646Z,30.00
2018-03-06T07:38:59.876Z,26.93
2018-03-06T07:41:28.108Z,24.80
2018-03-06T07:43:56.350Z,24.73
2018-03-06T07:46:25.689Z,31.30
2018-03-06T07:48:54.756Z,32.67
2018-03-06T07:51:22.924Z,34.10
2018-03-06T07:53:51.624Z,34.03
2018-03-06T07:56:19.864Z,27.97
2018-03-06T07:58:48.096Z,29.23
2018-03-06T08:01:16.484Z,27.33
2018-03-06T08:03:45.125Z,25.87
2018-03-06T08:06:14.124Z,26.93
2018-03-06T08:08:44.521Z,26.10
2018-03-06T08:11:12.958Z,25.47
2018-03-06T08:13:41.591Z,27.33
2018-03-06T08:16:09.978Z,28.10
2018-03-06T08:18:38.213Z,26.10
2018-03-06T08:21:06.850Z,29.43
2018-03-06T08:23:35.924Z,28.70
2018-03-06T08:26:04.177Z,28.00
2018-03-06T08:28:32.416Z,25.70
2018-03-06T08:31:00.978Z,26.80
2018-03-06T08:33:29.226Z,28.50
2018-03-06T08:35:57.447Z,27.40
2018-03-06T08:38:27.429Z,26.57
2018-03-06T08:40:55.533Z,39.10
2018-03-06T08:43:23.773Z,31.67
2018-03-06T08:45:53.456Z,28.40
2018-03-06T08:48:22.460Z,27.17
2018-03-06T08:50:51.456Z,26.23
2018-03-06T08:53:20.004Z,27.00
2018-03-06T08:55:48.633Z,28.97
2018-03-06T08:58:17.633Z,27.93
2018-03-06T09:00:48.227Z,33.03
2018-03-06T09:03:16.332Z,29.80
2018-03-06T09:05:44.959Z,25.63
2018-03-06T09:08:15.268Z,31.00
2018-03-06T09:10:44.273Z,26.53
2018-03-06T09:13:16.671Z,27.60
2018-03-06T09:15:44.908Z,27.20
2018-03-06T09:18:13.154Z,27.57
2018-03-06T09:20:42.024Z,30.23
2018-03-06T09:23:10.651Z,28.30
2018-03-06T09:25:38.880Z,25.77
2018-03-06T09:28:11.505Z,28.73
2018-03-06T09:30:40.133Z,37.17
2018-03-06T09:33:08.366Z,28.33
2018-03-06T09:38:13.304Z,29.20
2018-03-06T09:40:42.300Z,26.87
2018-03-06T09:43:10.535Z,32.47
2018-03-06T09:45:39.896Z,27.50
2018-03-06T09:48:08.524Z,41.00
2018-03-06T09:50:36.759Z,26.77
2018-03-06T09:53:06.264Z,27.80
2018-03-06T09:55:34.500Z,28.00
2018-03-06T09:58:02.732Z,27.00
2018-03-06T10:00:31.152Z,28.00
2018-03-06T10:02:59.420Z,27.60
2018-03-06T10:05:28.752Z,28.00
2018-03-06T10:07:58.055Z,28.77
2018-03-06T10:10:27.791Z,28.30
2018-03-06T10:12:57.375Z,26.37
2018-03-06T10:15:26.384Z,28.03
2018-03-06T10:17:55.019Z,28.87
2018-03-06T10:20:23.248Z,29.57
2018-03-06T10:22:52.927Z,27.27
2018-03-06T10:25:22.300Z,30.60
2018-03-06T10:27:51.672Z,28.30
2018-03-06T10:30:20.920Z,28.40
2018-03-06T10:32:49.916Z,28.70
2018-03-06T10:35:18.152Z,28.03
2018-03-06T10:37:46.593Z,26.27
2018-03-06T10:40:14.827Z,29.80
2018-03-06T10:42:43.056Z,28.60
2018-03-06T10:45:11.448Z,29.67
2018-03-06T10:47:39.680Z,30.23
2018-03-06T10:50:08.680Z,25.87
2018-03-06T10:55:11.884Z,26.10
2018-03-06T10:57:41.610Z,28.03
2018-03-06T11:00:11.656Z,27.90
2018-03-06T11:02:42.831Z,30.47
2018-03-06T11:05:11.595Z,28.97
2018-03-06T11:07:39.828Z,29.97
2018-03-06T11:10:08.827Z,27.53
2018-03-06T11:12:38.560Z,28.83
2018-03-06T11:15:06.668Z,26.33
2018-03-06T11:17:36.788Z,27.50
2018-03-06T11:20:05.445Z,28.73
2018-03-06T11:22:34.076Z,25.70
2018-03-06T11:25:02.310Z,26.47
2018-03-06T11:27:30.760Z,27.40
2018-03-06T11:29:59.760Z,26.37
2018-03-06T11:32:28.760Z,24.67
2018-03-06T11:34:57.408Z,19.30
2018-03-06T11:37:26.992Z,20.70
2018-03-06T11:39:55.865Z,19.77
2018-03-06T11:42:24.388Z,19.20
2018-03-06T11:44:52.997Z,19.30
2018-03-06T11:47:21.220Z,18.90
2018-03-06T11:49:49.764Z,20.10
2018-03-06T11:52:17.946Z,19.73
2018-03-06T11:54:46.168Z,18.80
2018-03-06T11:57:16.228Z,18.13
2018-03-06T11:59:44.464Z,20.87
2018-03-06T12:02:12.696Z,19.70
2018-03-06T12:04:42.075Z,19.57
2018-03-06T12:07:16.361Z,19.73
2018-03-06T12:09:45.884Z,18.87
2018-03-06T12:12:14.121Z,18.83
2018-03-06T12:14:43.124Z,18.13
2018-03-06T12:17:12.788Z,19.90
2018-03-06T12:19:43.284Z,21.10
2018-03-06T12:22:11.739Z,21.30
2018-03-06T12:24:41.108Z,20.10
2018-03-06T12:27:09.340Z,19.73
2018-03-06T12:29:38.868Z,20.07
2018-03-06T12:32:07.096Z,19.53
2018-03-06T12:34:36.101Z,19.93
2018-03-06T12:37:06.333Z,17.43
2018-03-06T12:39:34.568Z,17.20
2018-03-06T12:42:03.569Z,18.43
2018-03-06T12:44:35.852Z,17.93
2018-03-06T12:47:04.089Z,17.47
2018-03-06T12:49:33.088Z,17.20
2018-03-06T12:52:02.327Z,18.20
2018-03-06T12:54:31.324Z,19.13
2018-03-06T12:57:01.068Z,18.17
2018-03-06T12:59:29.442Z,18.13
2018-03-06T13:01:57.676Z,17.80
2018-03-06T13:04:26.672Z,17.60
2018-03-06T13:06:55.052Z,18.60
2018-03-06T13:09:23.281Z,19.20
2018-03-06T13:11:51.565Z,14.87
2018-03-06T13:14:22.427Z,15.93
2018-03-06T13:16:51.057Z,11.60
2018-03-06T13:19:19.288Z,11.90
2018-03-06T13:21:48.711Z,13.03
2018-03-06T13:24:17.336Z,13.23
2018-03-06T13:26:46.331Z,12.97
2018-03-06T13:29:16.296Z,13.53
2018-03-06T13:31:44.923Z,12.33
2018-03-06T13:34:13.162Z,12.27
2018-03-06T13:36:42.312Z,12.57
2018-03-06T13:39:10.544Z,13.63
2018-03-06T13:41:38.781Z,12.77
2018-03-06T13:44:08.056Z,12.27
2018-03-06T13:46:36.289Z,11.60
2018-03-06T13:49:04.520Z,11.77
2018-03-06T13:51:32.897Z,12.07
2018-03-06T13:54:01.900Z,11.67
2018-03-06T13:56:30.136Z,10.83
2018-03-06T13:58:59.284Z,11.60
2018-03-06T14:01:31.692Z,11.13
2018-03-06T14:06:36.064Z,11.50
2018-03-06T14:09:04.291Z,9.70
2018-03-06T14:11:33.872Z,9.70
2018-03-06T14:14:03.344Z,9.13
2018-03-06T14:16:31.974Z,10.57
2018-03-06T14:19:00.205Z,11.70
2018-03-06T14:21:28.576Z,10.47
2018-03-06T14:23:59.203Z,12.10
2018-03-06T14:26:27.308Z,10.63
2018-03-06T14:28:56.864Z,13.23
2018-03-06T14:31:25.096Z,12.70
2018-03-06T14:33:53.328Z,12.73
2018-03-06T14:36:22.113Z,12.93
2018-03-06T14:38:50.736Z,13.57
2018-03-06T14:41:18.973Z,13.50
2018-03-06T14:43:51.649Z,14.87
2018-03-06T14:46:19.880Z,14.13
2018-03-06T14:48:49.256Z,12.97
2018-03-06T14:51:18.139Z,11.77
2018-03-06T14:53:47.723Z,14.70
2018-03-06T14:56:15.839Z,13.07
2018-03-06T14:58:44.746Z,12.73
2018-03-06T15:01:14.267Z,12.10
2018-03-06T15:03:42.378Z,13.27
2018-03-06T15:06:13.176Z,13.47
2018-03-06T15:08:42.176Z,13.40
2018-03-06T15:11:11.181Z,12.63
2018-03-06T15:13:40.696Z,12.40
2018-03-06T15:16:08.936Z,12.13
2018-03-06T15:18:37.162Z,12.80
2018-03-06T15:21:07.052Z,13.03
2018-03-06T15:23:35.288Z,12.93
2018-03-06T15:26:05.776Z,12.83
2018-03-06T15:28:34.657Z,13.30
2018-03-06T15:31:03.289Z,14.67
2018-03-06T15:33:31.520Z,13.33
2018-03-06T15:35:59.892Z,14.23
2018-03-06T15:38:28.133Z,14.47
2018-03-06T15:40:56.367Z,15.00
2018-03-06T15:43:26.200Z,13.40
2018-03-06T15:45:55.947Z,15.20
2018-03-06T15:48:25.531Z,14.50
2018-03-06T15:50:56.848Z,15.00
2018-03-06T15:53:26.211Z,13.23
2018-03-06T15:55:54.445Z,13.90
2018-03-06T15:58:22.900Z,14.43
2018-03-06T16:00:52.640Z,17.37
2018-03-06T16:03:21.640Z,18.30
2018-03-06T16:08:24.187Z,15.87
2018-03-06T16:10:53.919Z,13.93
2018-03-06T16:13:23.664Z,14.43
2018-03-06T16:15:52.304Z,14.70
2018-03-06T16:18:21.888Z,14.50
2018-03-06T16:20:49.996Z,15.77
2018-03-06T16:23:19.748Z,13.87
2018-03-06T16:25:47.981Z,15.40
2018-03-06T16:28:16.491Z,16.20
2018-03-06T16:30:46.311Z,16.53
2018-03-06T16:33:14.624Z,15.40
2018-03-06T16:35:42.864Z,14.83
2018-03-06T16:38:11.664Z,17.00
2018-03-06T16:40:40.293Z,15.10
2018-03-06T16:43:08.523Z,14.90
2018-03-06T16:45:38.175Z,14.33
2018-03-06T16:48:06.805Z,15.37
2018-03-06T16:50:35.041Z,16.27
2018-03-06T16:53:04.110Z,16.77
2018-03-06T16:55:33.111Z,16.10
2018-03-06T16:58:02.688Z,18.03
2018-03-06T17:00:31.475Z,16.73
2018-03-06T17:03:01.212Z,17.00
2018-03-06T17:05:29.444Z,15.70
2018-03-06T17:07:59.669Z,16.53
2018-03-06T17:10:27.902Z,17.37
2018-03-06T17:12:56.136Z,16.40
2018-03-06T17:15:25.900Z,17.87
2018-03-06T17:17:55.267Z,17.20
2018-03-06T17:20:24.263Z,18.77
2018-03-06T17:22:52.770Z,21.03
2018-03-06T17:25:22.351Z,18.53
2018-03-06T17:27:50.461Z,16.70
2018-03-06T17:30:20.846Z,16.30
2018-03-06T17:32:49.842Z,19.30
2018-03-06T17:35:19.424Z,17.50
2018-03-06T17:37:47.708Z,18.70
2018-03-06T17:40:17.295Z,18.10
2018-03-06T17:42:45.399Z,17.23
2018-03-06T17:45:14.797Z,18.00
2018-03-06T17:47:43.428Z,16.73
2018-03-06T17:50:13.006Z,15.10
2018-03-06T17:52:41.652Z,14.77
2018-03-06T17:55:09.885Z,14.80
2018-03-06T17:57:38.116Z,14.77
2018-03-06T18:00:07.340Z,14.80
2018-03-06T18:02:35.968Z,14.13
2018-03-06T18:05:04.204Z,13.53
2018-03-06T18:07:32.760Z,14.23
2018-03-06T18:10:02.504Z,13.97
2018-03-06T18:12:30.732Z,12.60
2018-03-06T18:14:59.217Z,14.90
2018-03-06T18:17:28.802Z,12.90
2018-03-06T18:19:56.909Z,13.70
2018-03-06T18:24:59.624Z,12.40
2018-03-06T18:27:27.858Z,14.50
2018-03-06T18:29:56.096Z,14.80
2018-03-06T18:32:24.781Z,16.67
2018-03-06T18:34:53.416Z,15.63
2018-03-06T18:37:21.688Z,14.13
2018-03-06T18:39:50.476Z,14.27
2018-03-06T18:42:19.843Z,12.77
2018-03-06T18:44:48.093Z,14.70
2018-03-06T18:47:17.645Z,16.23
2018-03-06T18:49:58.572Z,14.80
2018-03-06T18:52:26.952Z,15.00
2018-03-06T18:54:56.697Z,14.20
2018-03-06T18:57:26.435Z,15.47
2018-03-06T19:03:09.508Z,16.27
2018-03-06T19:08:23.377Z,15.37
2018-03-06T19:10:51.608Z,15.80
2018-03-06T19:13:19.849Z,16.33
2018-03-06T19:15:48.219Z,15.50
2018-03-06T19:18:16.456Z,16.10
2018-03-06T19:20:45.456Z,15.90
2018-03-06T19:23:16.535Z,15.27
2018-03-06T19:25:44.640Z,27.60
2018-03-06T19:28:12.873Z,17.70
2018-03-06T19:30:42.121Z,17.20
2018-03-06T19:33:10.648Z,17.83
2018-03-06T19:35:38.876Z,19.07
2018-03-06T19:38:07.256Z,16.93
2018-03-06T19:40:35.488Z,17.97
2018-03-06T19:43:04.492Z,16.83
2018-03-06T19:45:33.036Z,17.00
2018-03-06T19:48:01.263Z,17.60
2018-03-06T19:50:29.499Z,16.03
2018-03-06T19:52:59.739Z,18.00
2018-03-06T19:55:27.979Z,17.53
2018-03-06T19:57:56.213Z,18.70
2018-03-06T20:00:24.760Z,18.33
2018-03-06T20:02:53.390Z,20.07
2018-03-06T20:05:22.976Z,20.83
2018-03-06T20:07:52.132Z,18.20
2018-03-06T20:10:21.525Z,18.13
2018-03-06T20:12:49.749Z,18.33
2018-03-06T20:15:19.340Z,19.87
2018-03-06T20:17:47.969Z,17.50
2018-03-06T20:20:16.209Z,19.97
2018-03-06T20:22:45.448Z,21.23
2018-03-06T20:25:20.212Z,20.50
2018-03-06T20:27:50.432Z,22.00
2018-03-06T20:30:25.140Z,20.03
2018-03-06T20:33:02.413Z,21.07
2018-03-06T20:35:34.184Z,23.70
2018-03-06T20:38:03.336Z,21.90
2018-03-06T20:40:32.764Z,21.40
2018-03-06T20:43:01.773Z,21.53
2018-03-06T20:50:46.059Z,24.10
2018-03-06T20:53:19.868Z,22.60
2018-03-06T20:55:49.117Z,24.87
2018-03-06T20:58:17.744Z,24.60
2018-03-06T21:00:45.980Z,23.87
2018-03-06T21:03:16.382Z,23.90
2018-03-06T21:05:45.973Z,24.50
2018-03-06T21:08:14.085Z,25.00
2018-03-06T21:10:42.461Z,24.77
2018-03-06T21:13:10.700Z,23.43
2018-03-06T21:15:38.936Z,24.20
2018-03-06T21:18:08.040Z,26.83
2018-03-06T21:20:36.664Z,27.87
2018-03-06T21:23:05.664Z,27.47
2018-03-06T21:25:34.682Z,25.80
2018-03-06T21:28:02.920Z,24.83
2018-03-06T21:30:31.548Z,23.13
2018-03-06T21:33:00.749Z,24.87
2018-03-06T21:35:29.387Z,25.70
2018-03-06T21:37:58.636Z,25.53
2018-03-06T21:40:27.288Z,25.40
2018-03-06T21:42:55.924Z,25.97
2018-03-06T21:45:24.555Z,33.40
2018-03-06T21:47:54.813Z,29.27
2018-03-06T21:50:23.045Z,27.13
2018-03-06T21:52:51.292Z,26.10
2018-03-06T21:55:19.673Z,26.90
2018-03-06T21:57:48.308Z,26.60
2018-03-06T22:00:16.940Z,25.63
2018-03-06T22:02:45.615Z,26.33
2018-03-06T22:05:13.864Z,27.43
2018-03-06T22:07:42.868Z,24.47
2018-03-06T22:10:11.344Z,28.50
2018-03-06T22:12:39.588Z,26.27
2018-03-06T22:15:07.835Z,26.63
2018-03-06T22:17:38.809Z,26.03
2018-03-06T22:20:07.449Z,26.47
2018-03-06T22:22:35.694Z,28.27
2018-03-06T22:25:04.438Z,28.83
2018-03-06T22:27:32.670Z,28.50
2018-03-06T22:30:00.901Z,29.53
2018-03-06T22:32:29.952Z,29.10
2018-03-06T22:34:58.193Z,27.43
2018-03-06T22:37:27.196Z,31.13
2018-03-06T22:39:56.289Z,28.97
2018-03-06T22:42:25.301Z,27.97
2018-03-06T22:44:54.681Z,28.07
2018-03-06T22:47:23.486Z,29.97
2018-03-06T22:49:53.808Z,28.77
2018-03-06T22:52:23.080Z,30.00
2018-03-06T22:54:52.177Z,28.10
2018-03-06T22:57:21.185Z,30.30
2018-03-06T22:59:49.428Z,31.10
2018-03-06T23:02:18.363Z,30.30
2018-03-06T23:04:46.600Z,29.70
2018-03-06T23:07:15.608Z,31.07
2018-03-06T23:09:43.993Z,30.57
2018-03-06T23:12:13.019Z,29.77
2018-03-06T23:14:42.031Z,31.40
2018-03-06T23:17:11.681Z,31.57
2018-03-06T23:19:39.930Z,32.20
2018-03-06T23:22:08.179Z,29.47
2018-03-06T23:24:37.532Z,29.50
2018-03-06T23:27:06.543Z,30.80
2018-03-06T23:29:34.791Z,31.70
2018-03-06T23:32:04.156Z,29.00
2018-03-06T23:34:32.808Z,28.30
2018-03-06T23:37:01.047Z,28.37
2018-03-06T23:39:30.461Z,30.07
2018-03-06T23:42:01.605Z,28.43
2018-03-06T23:44:30.385Z,30.50
2018-03-06T23:46:59.381Z,30.20
2018-03-06T23:49:28.395Z,31.13
2018-03-06T23:51:56.741Z,30.17
2018-03-06T23:54:26.127Z,31.10
2018-03-06T23:56:54.360Z,32.10
2018-03-06T23:59:23.577Z,31.73
